Bayfield, CO (81122)

11:33 PM MDT on August 27, 2015 (GMT -0600)
Timberdale Ranch | | Change Station
CLOSE
Current Station
Personal Weather Station
Location: Bayfield, CO
Elevation: 7690 ft
Nearby Weather Stations

Elev 7690 ft 37.30 °N, 107.65 °W | Updated 2 minutes ago

Clear
Clear
58.0 °F
Feels Like 58.0 °F
N
1.8
Wind Variable Wind from NW
Gusts 3.4 mph

Today
High -- | Low -- °F
--% Chance of Precip.
Yesterday
High -- | Low -- °F
Precip. -- in
6:36 AM 7:46 PM
Waxing Gibbous, 96% visible
Pressure 30.07 in
Visibility 10.0 miles
Clouds Clear
Dew Point 51 °F
Humidity 78%
Rainfall 0.07 in
Snow Depth Not available.
UV 0 out of 12
Pollen 2.00 out of 12
Air Quality Not available.
Flu Activity Not available.
METAR KDRO 280453Z AUTO 03003KT 10SM CLR 16/12 A3029 RMK AO2 SLP183 T01560117
Pressure 30.07 in
Visibility 10.0 miles
Clouds Clear
Dew Point 51 °F
Humidity 78%
Rainfall 0.07 in
Snow Depth Not available.
UV 0 out of 12
Pollen 2.00 out of 12
Air Quality Not available.
Flu Activity Not available.
METAR KDRO 280453Z AUTO 03003KT 10SM CLR 16/12 A3029 RMK AO2 SLP183 T01560117

10-Day Weather Forecast

×

Almanac

Astronomy

Aug. 27, 2015 Rise Set
Actual Time
Civil Twilight
Nautical Twilight
Astronomical Twilight
Moon
Length of Visible Light
Length of Day
Tomorrow will be .
, % of the Moon is Illuminated

Today's Extremes

State Highs State Lows

Community

WunderPhotos

Upload Photos

1,850,341 photos uploaded!

WunderBlogs® & News

Nearby

Air Quality

  Air Quality AQ Index Pollutant
Not available.

Snow Depth

Station Depth Elevation

Earthquake Activity

City Distance Mag. Time & Date
Minimum magnitude displayed is 2.5.

Coastal Water Temperatures

Place Temperature

Stations

Nearby Weather Stations

Station Location Temp. Windchill Dew Point Humidity Wind Precip. Elev Updated Type